sensor_id;sensor_type;location;lat;lon;timestamp;temperature;humidity
35258;DHT22;21385;50.878;8.050;2022-12-08T00:01:44;4.70;99.90
35258;DHT22;21385;50.878;8.050;2022-12-08T00:04:10;4.60;99.90
35258;DHT22;21385;50.878;8.050;2022-12-08T00:06:40;4.60;99.90
35258;DHT22;21385;50.878;8.050;2022-12-08T00:12:03;4.50;99.90
35258;DHT22;21385;50.878;8.050;2022-12-08T00:26:43;4.30;99.90
35258;DHT22;21385;50.878;8.050;2022-12-08T00:29:09;4.30;99.90
35258;DHT22;21385;50.878;8.050;2022-12-08T00:31:34;4.30;99.90
35258;DHT22;21385;50.878;8.050;2022-12-08T00:34:00;4.30;99.90
35258;DHT22;21385;50.878;8.050;2022-12-08T00:36:26;4.30;99.90
35258;DHT22;21385;50.878;8.050;2022-12-08T00:38:51;4.30;99.90
35258;DHT22;21385;50.878;8.050;2022-12-08T00:41:20;4.30;99.90
35258;DHT22;21385;50.878;8.050;2022-12-08T00:44:06;4.20;99.90
35258;DHT22;21385;50.878;8.050;2022-12-08T00:46:31;4.20;99.90
35258;DHT22;21385;50.878;8.050;2022-12-08T00:48:57;4.20;99.90
35258;DHT22;21385;50.878;8.050;2022-12-08T00:51:23;4.10;99.90
35258;DHT22;21385;50.878;8.050;2022-12-08T00:53:48;4.20;99.90
35258;DHT22;21385;50.878;8.050;2022-12-08T00:56:14;4.20;99.90
35258;DHT22;21385;50.878;8.050;2022-12-08T00:58:39;4.30;99.90
35258;DHT22;21385;50.878;8.050;2022-12-08T01:01:12;4.30;99.90
35258;DHT22;21385;50.878;8.050;2022-12-08T01:03:38;4.30;99.90
35258;DHT22;21385;50.878;8.050;2022-12-08T01:06:04;4.30;99.90
35258;DHT22;21385;50.878;8.050;2022-12-08T01:08:30;4.20;99.90
35258;DHT22;21385;50.878;8.050;2022-12-08T01:10:56;4.20;99.90
35258;DHT22;21385;50.878;8.050;2022-12-08T01:13:27;4.30;99.90
35258;DHT22;21385;50.878;8.050;2022-12-08T01:15:52;4.30;99.90
35258;DHT22;21385;50.878;8.050;2022-12-08T01:18:18;4.40;99.90
35258;DHT22;21385;50.878;8.050;2022-12-08T01:20:43;4.40;99.90
35258;DHT22;21385;50.878;8.050;2022-12-08T01:23:09;4.40;99.90
35258;DHT22;21385;50.878;8.050;2022-12-08T01:25:34;4.40;99.90
35258;DHT22;21385;50.878;8.050;2022-12-08T01:28:00;4.50;99.90
35258;DHT22;21385;50.878;8.050;2022-12-08T01:30:25;4.50;99.90
35258;DHT22;21385;50.878;8.050;2022-12-08T01:32:51;4.60;99.90
35258;DHT22;21385;50.878;8.050;2022-12-08T01:35:16;4.50;99.90
35258;DHT22;21385;50.878;8.050;2022-12-08T01:37:42;4.40;99.90
35258;DHT22;21385;50.878;8.050;2022-12-08T01:40:08;4.40;99.90
35258;DHT22;21385;50.878;8.050;2022-12-08T01:42:33;4.40;99.90
35258;DHT22;21385;50.878;8.050;2022-12-08T01:45:13;4.40;99.90
35258;DHT22;21385;50.878;8.050;2022-12-08T01:47:46;4.40;99.90
35258;DHT22;21385;50.878;8.050;2022-12-08T01:50:14;4.40;99.90
35258;DHT22;21385;50.878;8.050;2022-12-08T01:52:58;4.40;99.90
35258;DHT22;21385;50.878;8.050;2022-12-08T01:57:59;4.40;99.90
35258;DHT22;21385;50.878;8.050;2022-12-08T02:00:27;4.40;99.90
35258;DHT22;21385;50.878;8.050;2022-12-08T02:05:27;4.50;99.90
35258;DHT22;21385;50.878;8.050;2022-12-08T02:07:53;4.50;99.90
35258;DHT22;21385;50.878;8.050;2022-12-08T02:10:22;4.40;99.90
35258;DHT22;21385;50.878;8.050;2022-12-08T02:12:50;4.40;99.90
35258;DHT22;21385;50.878;8.050;2022-12-08T02:15:17;4.40;99.90
35258;DHT22;21385;50.878;8.050;2022-12-08T02:20:48;4.50;99.90
35258;DHT22;21385;50.878;8.050;2022-12-08T02:23:32;4.50;99.90
35258;DHT22;21385;50.878;8.050;2022-12-08T02:26:23;4.50;99.90
35258;DHT22;21385;50.878;8.050;2022-12-08T02:29:16;4.60;99.90
35258;DHT22;21385;50.878;8.050;2022-12-08T02:37:36;4.60;99.90
35258;DHT22;21385;50.878;8.050;2022-12-08T02:42:45;4.60;99.90
35258;DHT22;21385;50.878;8.050;2022-12-08T02:45:28;4.50;99.90
35258;DHT22;21385;50.878;8.050;2022-12-08T02:47:57;4.40;99.90
35258;DHT22;21385;50.878;8.050;2022-12-08T02:50:23;4.40;99.90
35258;DHT22;21385;50.878;8.050;2022-12-08T02:52:49;4.40;99.90
35258;DHT22;21385;50.878;8.050;2022-12-08T02:55:26;4.40;99.90
35258;DHT22;21385;50.878;8.050;2022-12-08T03:03:44;4.30;99.90
35258;DHT22;21385;50.878;8.050;2022-12-08T03:11:53;4.30;99.90
35258;DHT22;21385;50.878;8.050;2022-12-08T03:14:21;4.20;99.90
35258;DHT22;21385;50.878;8.050;2022-12-08T03:16:50;4.20;99.90
35258;DHT22;21385;50.878;8.050;2022-12-08T03:19:22;4.10;99.90
35258;DHT22;21385;50.878;8.050;2022-12-08T03:21:53;4.10;99.90
35258;DHT22;21385;50.878;8.050;2022-12-08T03:24:28;4.10;99.90
35258;DHT22;21385;50.878;8.050;2022-12-08T03:26:58;4.10;99.90
35258;DHT22;21385;50.878;8.050;2022-12-08T03:29:26;4.10;99.90
35258;DHT22;21385;50.878;8.050;2022-12-08T03:32:06;4.10;99.90
35258;DHT22;21385;50.878;8.050;2022-12-08T03:34:34;4.20;99.90
35258;DHT22;21385;50.878;8.050;2022-12-08T03:37:00;4.20;99.90
35258;DHT22;21385;50.878;8.050;2022-12-08T03:39:27;4.30;99.90
35258;DHT22;21385;50.878;8.050;2022-12-08T03:41:52;4.30;99.90
35258;DHT22;21385;50.878;8.050;2022-12-08T03:44:18;4.20;99.90
35258;DHT22;21385;50.878;8.050;2022-12-08T03:46:43;4.20;99.90
35258;DHT22;21385;50.878;8.050;2022-12-08T03:49:10;4.20;99.90
35258;DHT22;21385;50.878;8.050;2022-12-08T03:51:35;4.20;99.90
35258;DHT22;21385;50.878;8.050;2022-12-08T03:54:01;4.30;99.90
35258;DHT22;21385;50.878;8.050;2022-12-08T03:56:36;4.20;99.90
35258;DHT22;21385;50.878;8.050;2022-12-08T03:59:03;4.10;99.90
35258;DHT22;21385;50.878;8.050;2022-12-08T04:01:28;4.00;99.90
35258;DHT22;21385;50.878;8.050;2022-12-08T04:06:20;4.00;99.90
35258;DHT22;21385;50.878;8.050;2022-12-08T04:08:46;4.00;99.90
35258;DHT22;21385;50.878;8.050;2022-12-08T04:11:12;4.00;99.90
35258;DHT22;21385;50.878;8.050;2022-12-08T04:13:39;4.00;99.90
35258;DHT22;21385;50.878;8.050;2022-12-08T04:16:06;3.90;99.90
35258;DHT22;21385;50.878;8.050;2022-12-08T04:18:32;4.00;99.90
35258;DHT22;21385;50.878;8.050;2022-12-08T04:20:58;4.00;99.90
35258;DHT22;21385;50.878;8.050;2022-12-08T04:23:24;4.10;99.90
35258;DHT22;21385;50.878;8.050;2022-12-08T04:25:52;4.10;99.90
35258;DHT22;21385;50.878;8.050;2022-12-08T04:28:18;4.10;99.90
35258;DHT22;21385;50.878;8.050;2022-12-08T04:30:44;4.10;99.90
35258;DHT22;21385;50.878;8.050;2022-12-08T04:33:09;4.10;99.90
35258;DHT22;21385;50.878;8.050;2022-12-08T04:35:35;4.00;99.90
35258;DHT22;21385;50.878;8.050;2022-12-08T04:38:01;3.90;99.90
35258;DHT22;21385;50.878;8.050;2022-12-08T04:40:26;3.90;99.90
35258;DHT22;21385;50.878;8.050;2022-12-08T04:42:52;3.80;99.90
35258;DHT22;21385;50.878;8.050;2022-12-08T04:45:18;3.90;99.90
35258;DHT22;21385;50.878;8.050;2022-12-08T04:47:44;3.90;99.90
35258;DHT22;21385;50.878;8.050;2022-12-08T04:50:10;4.00;99.90
35258;DHT22;21385;50.878;8.050;2022-12-08T04:52:35;4.00;99.90
35258;DHT22;21385;50.878;8.050;2022-12-08T04:55:01;3.90;99.90
35258;DHT22;21385;50.878;8.050;2022-12-08T04:57:27;3.90;99.90
35258;DHT22;21385;50.878;8.050;2022-12-08T04:59:52;3.90;99.90
35258;DHT22;21385;50.878;8.050;2022-12-08T05:02:18;3.90;99.90
35258;DHT22;21385;50.878;8.050;2022-12-08T05:04:44;3.90;99.90
35258;DHT22;21385;50.878;8.050;2022-12-08T05:07:09;3.90;99.90
35258;DHT22;21385;50.878;8.050;2022-12-08T05:09:35;3.90;99.90
35258;DHT22;21385;50.878;8.050;2022-12-08T05:12:00;3.90;99.90
35258;DHT22;21385;50.878;8.050;2022-12-08T05:14:26;3.90;99.90
35258;DHT22;21385;50.878;8.050;2022-12-08T05:16:51;4.00;99.90
35258;DHT22;21385;50.878;8.050;2022-12-08T05:19:17;4.00;99.90
35258;DHT22;21385;50.878;8.050;2022-12-08T05:21:43;4.00;99.90
35258;DHT22;21385;50.878;8.050;2022-12-08T05:24:09;4.00;99.90
35258;DHT22;21385;50.878;8.050;2022-12-08T05:26:35;4.00;99.90
35258;DHT22;21385;50.878;8.050;2022-12-08T05:29:00;4.00;99.90
35258;DHT22;21385;50.878;8.050;2022-12-08T05:31:26;4.00;99.90
35258;DHT22;21385;50.878;8.050;2022-12-08T05:33:52;4.00;99.90
35258;DHT22;21385;50.878;8.050;2022-12-08T05:36:18;4.10;99.90
35258;DHT22;21385;50.878;8.050;2022-12-08T05:38:44;4.10;99.90
35258;DHT22;21385;50.878;8.050;2022-12-08T05:41:14;4.10;99.90
35258;DHT22;21385;50.878;8.050;2022-12-08T05:43:40;4.00;99.90
35258;DHT22;21385;50.878;8.050;2022-12-08T05:46:07;4.00;99.90
35258;DHT22;21385;50.878;8.050;2022-12-08T05:48:33;4.00;99.90
35258;DHT22;21385;50.878;8.050;2022-12-08T05:50:58;4.00;99.90
35258;DHT22;21385;50.878;8.050;2022-12-08T05:53:24;4.00;99.90
35258;DHT22;21385;50.878;8.050;2022-12-08T05:55:50;3.90;99.90
35258;DHT22;21385;50.878;8.050;2022-12-08T05:58:17;4.00;99.90
35258;DHT22;21385;50.878;8.050;2022-12-08T06:00:43;4.00;99.90
35258;DHT22;21385;50.878;8.050;2022-12-08T06:03:10;4.00;99.90
35258;DHT22;21385;50.878;8.050;2022-12-08T06:05:39;4.00;99.90
35258;DHT22;21385;50.878;8.050;2022-12-08T06:08:04;3.90;99.90
35258;DHT22;21385;50.878;8.050;2022-12-08T06:10:30;3.90;99.90
35258;DHT22;21385;50.878;8.050;2022-12-08T06:12:55;3.90;99.90
35258;DHT22;21385;50.878;8.050;2022-12-08T06:15:21;4.00;99.90
35258;DHT22;21385;50.878;8.050;2022-12-08T06:17:46;3.90;99.90
35258;DHT22;21385;50.878;8.050;2022-12-08T06:20:12;3.90;99.90
35258;DHT22;21385;50.878;8.050;2022-12-08T06:22:38;3.90;99.90
35258;DHT22;21385;50.878;8.050;2022-12-08T06:25:04;4.60;99.90
35258;DHT22;21385;50.878;8.050;2022-12-08T06:27:30;4.70;99.90
35258;DHT22;21385;50.878;8.050;2022-12-08T06:29:55;4.60;99.90
35258;DHT22;21385;50.878;8.050;2022-12-08T06:32:21;4.50;99.90
35258;DHT22;21385;50.878;8.050;2022-12-08T06:34:47;4.40;99.90
35258;DHT22;21385;50.878;8.050;2022-12-08T06:37:12;5.40;99.90
35258;DHT22;21385;50.878;8.050;2022-12-08T06:39:38;5.40;99.90
35258;DHT22;21385;50.878;8.050;2022-12-08T06:42:04;5.00;99.90
35258;DHT22;21385;50.878;8.050;2022-12-08T06:44:48;4.70;99.90
35258;DHT22;21385;50.878;8.050;2022-12-08T06:47:14;4.30;99.90
35258;DHT22;21385;50.878;8.050;2022-12-08T06:49:40;4.20;99.90
35258;DHT22;21385;50.878;8.050;2022-12-08T06:52:05;4.10;99.90
35258;DHT22;21385;50.878;8.050;2022-12-08T06:54:31;4.00;99.90
35258;DHT22;21385;50.878;8.050;2022-12-08T06:56:56;3.90;99.90
35258;DHT22;21385;50.878;8.050;2022-12-08T06:59:22;3.90;99.90
35258;DHT22;21385;50.878;8.050;2022-12-08T07:01:50;3.90;99.90
35258;DHT22;21385;50.878;8.050;2022-12-08T07:04:16;4.00;99.90
35258;DHT22;21385;50.878;8.050;2022-12-08T07:06:42;4.00;99.90
35258;DHT22;21385;50.878;8.050;2022-12-08T07:09:08;4.00;99.90
35258;DHT22;21385;50.878;8.050;2022-12-08T07:11:33;4.00;99.90
35258;DHT22;21385;50.878;8.050;2022-12-08T07:13:59;4.00;99.90
35258;DHT22;21385;50.878;8.050;2022-12-08T07:16:25;3.90;99.90
35258;DHT22;21385;50.878;8.050;2022-12-08T07:18:50;3.90;99.90
35258;DHT22;21385;50.878;8.050;2022-12-08T07:21:16;3.90;99.90
35258;DHT22;21385;50.878;8.050;2022-12-08T07:23:45;3.90;99.90
35258;DHT22;21385;50.878;8.050;2022-12-08T07:26:11;3.90;99.90
35258;DHT22;21385;50.878;8.050;2022-12-08T07:28:38;3.90;99.90
35258;DHT22;21385;50.878;8.050;2022-12-08T07:31:06;3.90;99.90
35258;DHT22;21385;50.878;8.050;2022-12-08T07:33:32;3.90;99.90
35258;DHT22;21385;50.878;8.050;2022-12-08T07:36:00;3.90;99.90
35258;DHT22;21385;50.878;8.050;2022-12-08T07:38:26;3.80;99.90
35258;DHT22;21385;50.878;8.050;2022-12-08T07:40:53;3.80;99.90
35258;DHT22;21385;50.878;8.050;2022-12-08T07:43:19;3.80;99.90
35258;DHT22;21385;50.878;8.050;2022-12-08T07:45:45;3.70;99.90
35258;DHT22;21385;50.878;8.050;2022-12-08T07:48:11;3.70;99.90
35258;DHT22;21385;50.878;8.050;2022-12-08T07:50:37;3.70;99.90
35258;DHT22;21385;50.878;8.050;2022-12-08T07:53:03;3.70;99.90
35258;DHT22;21385;50.878;8.050;2022-12-08T07:55:28;3.70;99.90
35258;DHT22;21385;50.878;8.050;2022-12-08T07:57:54;3.70;99.90
35258;DHT22;21385;50.878;8.050;2022-12-08T08:00:20;3.80;99.90
35258;DHT22;21385;50.878;8.050;2022-12-08T08:02:45;3.80;99.90
35258;DHT22;21385;50.878;8.050;2022-12-08T08:05:11;3.80;99.90
35258;DHT22;21385;50.878;8.050;2022-12-08T08:07:41;3.70;99.90
35258;DHT22;21385;50.878;8.050;2022-12-08T08:10:09;3.70;99.90
35258;DHT22;21385;50.878;8.050;2022-12-08T08:12:35;3.80;99.90
35258;DHT22;21385;50.878;8.050;2022-12-08T08:15:01;3.80;99.90
35258;DHT22;21385;50.878;8.050;2022-12-08T08:17:28;3.80;99.90
35258;DHT22;21385;50.878;8.050;2022-12-08T08:19:54;3.80;99.90
35258;DHT22;21385;50.878;8.050;2022-12-08T08:22:19;3.90;99.90
35258;DHT22;21385;50.878;8.050;2022-12-08T08:24:45;3.80;99.90
35258;DHT22;21385;50.878;8.050;2022-12-08T08:27:11;3.80;99.90
35258;DHT22;21385;50.878;8.050;2022-12-08T08:29:36;3.80;99.90
35258;DHT22;21385;50.878;8.050;2022-12-08T08:32:02;3.80;99.90
35258;DHT22;21385;50.878;8.050;2022-12-08T08:34:27;3.80;99.90
35258;DHT22;21385;50.878;8.050;2022-12-08T08:36:53;3.80;99.90
35258;DHT22;21385;50.878;8.050;2022-12-08T08:39:18;3.80;99.90
35258;DHT22;21385;50.878;8.050;2022-12-08T08:41:44;3.80;99.90
35258;DHT22;21385;50.878;8.050;2022-12-08T08:44:12;3.80;99.90
35258;DHT22;21385;50.878;8.050;2022-12-08T08:46:38;3.80;99.90
35258;DHT22;21385;50.878;8.050;2022-12-08T08:49:03;3.80;99.90
35258;DHT22;21385;50.878;8.050;2022-12-08T08:51:29;3.80;99.90
35258;DHT22;21385;50.878;8.050;2022-12-08T08:53:55;3.90;99.90
35258;DHT22;21385;50.878;8.050;2022-12-08T08:56:21;3.90;99.90
35258;DHT22;21385;50.878;8.050;2022-12-08T08:58:48;3.90;99.90
35258;DHT22;21385;50.878;8.050;2022-12-08T09:01:15;3.90;99.90
35258;DHT22;21385;50.878;8.050;2022-12-08T09:03:41;3.80;99.90
35258;DHT22;21385;50.878;8.050;2022-12-08T09:06:07;3.80;99.90
35258;DHT22;21385;50.878;8.050;2022-12-08T09:08:32;3.80;99.90
35258;DHT22;21385;50.878;8.050;2022-12-08T09:10:58;3.80;99.90
35258;DHT22;21385;50.878;8.050;2022-12-08T09:13:23;3.80;99.90
35258;DHT22;21385;50.878;8.050;2022-12-08T09:15:49;3.80;99.90
35258;DHT22;21385;50.878;8.050;2022-12-08T09:18:15;3.80;99.90
35258;DHT22;21385;50.878;8.050;2022-12-08T09:20:40;3.80;99.90
35258;DHT22;21385;50.878;8.050;2022-12-08T09:23:06;3.80;99.90
35258;DHT22;21385;50.878;8.050;2022-12-08T09:25:31;3.80;99.90
35258;DHT22;21385;50.878;8.050;2022-12-08T09:27:57;3.80;99.90
35258;DHT22;21385;50.878;8.050;2022-12-08T09:30:22;3.80;99.90
35258;DHT22;21385;50.878;8.050;2022-12-08T09:32:48;3.90;99.90
35258;DHT22;21385;50.878;8.050;2022-12-08T09:35:13;4.00;99.90
35258;DHT22;21385;50.878;8.050;2022-12-08T09:37:39;4.00;99.90
35258;DHT22;21385;50.878;8.050;2022-12-08T09:40:05;4.00;99.90
35258;DHT22;21385;50.878;8.050;2022-12-08T09:42:46;4.10;99.90
35258;DHT22;21385;50.878;8.050;2022-12-08T09:45:15;4.00;99.90
35258;DHT22;21385;50.878;8.050;2022-12-08T09:47:57;4.00;99.90
35258;DHT22;21385;50.878;8.050;2022-12-08T09:53:40;4.00;99.90
35258;DHT22;21385;50.878;8.050;2022-12-08T09:56:17;3.90;99.90
35258;DHT22;21385;50.878;8.050;2022-12-08T10:01:22;3.90;99.90
35258;DHT22;21385;50.878;8.050;2022-12-08T10:03:51;3.90;99.90
35258;DHT22;21385;50.878;8.050;2022-12-08T10:12:27;3.80;99.90
35258;DHT22;21385;50.878;8.050;2022-12-08T10:17:52;3.90;99.90
35258;DHT22;21385;50.878;8.050;2022-12-08T10:20:21;3.90;99.90
35258;DHT22;21385;50.878;8.050;2022-12-08T10:25:44;4.00;99.90
35258;DHT22;21385;50.878;8.050;2022-12-08T10:28:10;4.00;99.90
35258;DHT22;21385;50.878;8.050;2022-12-08T10:30:37;4.00;99.90
35258;DHT22;21385;50.878;8.050;2022-12-08T10:33:03;4.00;99.90
35258;DHT22;21385;50.878;8.050;2022-12-08T10:35:51;3.90;99.90
35258;DHT22;21385;50.878;8.050;2022-12-08T10:38:29;4.00;99.90
35258;DHT22;21385;50.878;8.050;2022-12-08T10:46:21;3.90;99.90
35258;DHT22;21385;50.878;8.050;2022-12-08T10:48:53;3.90;99.90
35258;DHT22;21385;50.878;8.050;2022-12-08T10:53:50;3.90;99.90
35258;DHT22;21385;50.878;8.050;2022-12-08T10:56:17;4.00;99.90
35258;DHT22;21385;50.878;8.050;2022-12-08T10:58:44;4.00;99.90
35258;DHT22;21385;50.878;8.050;2022-12-08T11:01:17;4.00;99.90
35258;DHT22;21385;50.878;8.050;2022-12-08T11:03:56;3.90;99.90
35258;DHT22;21385;50.878;8.050;2022-12-08T11:08:56;4.00;99.90
35258;DHT22;21385;50.878;8.050;2022-12-08T11:16:46;4.00;99.90
35258;DHT22;21385;50.878;8.050;2022-12-08T11:19:16;4.10;99.90
35258;DHT22;21385;50.878;8.050;2022-12-08T11:21:42;4.10;99.90
35258;DHT22;21385;50.878;8.050;2022-12-08T11:24:28;4.10;99.90
35258;DHT22;21385;50.878;8.050;2022-12-08T11:27:02;4.00;99.90
35258;DHT22;21385;50.878;8.050;2022-12-08T11:29:31;4.00;99.90
35258;DHT22;21385;50.878;8.050;2022-12-08T11:32:01;4.00;99.90
35258;DHT22;21385;50.878;8.050;2022-12-08T11:37:00;4.10;99.90
35258;DHT22;21385;50.878;8.050;2022-12-08T11:39:28;4.00;99.90
35258;DHT22;21385;50.878;8.050;2022-12-08T11:41:55;4.10;99.90
35258;DHT22;21385;50.878;8.050;2022-12-08T11:44:34;4.10;99.90
35258;DHT22;21385;50.878;8.050;2022-12-08T11:47:09;4.10;99.90
35258;DHT22;21385;50.878;8.050;2022-12-08T11:49:40;4.10;99.90
35258;DHT22;21385;50.878;8.050;2022-12-08T11:54:52;4.00;99.90
35258;DHT22;21385;50.878;8.050;2022-12-08T11:57:23;4.00;99.90
35258;DHT22;21385;50.878;8.050;2022-12-08T11:59:51;4.00;99.90
35258;DHT22;21385;50.878;8.050;2022-12-08T12:02:29;4.00;99.90
35258;DHT22;21385;50.878;8.050;2022-12-08T12:05:10;4.00;99.90
35258;DHT22;21385;50.878;8.050;2022-12-08T12:16:28;4.20;99.90
35258;DHT22;21385;50.878;8.050;2022-12-08T12:19:02;4.20;99.90
35258;DHT22;21385;50.878;8.050;2022-12-08T12:21:40;4.30;99.90
35258;DHT22;21385;50.878;8.050;2022-12-08T12:24:30;4.30;99.90
35258;DHT22;21385;50.878;8.050;2022-12-08T12:27:01;4.30;99.90
35258;DHT22;21385;50.878;8.050;2022-12-08T12:29:30;4.20;99.90
35258;DHT22;21385;50.878;8.050;2022-12-08T12:32:00;4.20;99.90
35258;DHT22;21385;50.878;8.050;2022-12-08T12:37:06;4.20;99.90
35258;DHT22;21385;50.878;8.050;2022-12-08T12:39:52;4.20;99.90
35258;DHT22;21385;50.878;8.050;2022-12-08T12:45:32;4.10;99.90
35258;DHT22;21385;50.878;8.050;2022-12-08T13:03:44;4.00;99.90
35258;DHT22;21385;50.878;8.050;2022-12-08T13:06:11;4.00;99.90
35258;DHT22;21385;50.878;8.050;2022-12-08T13:08:40;4.00;99.90
35258;DHT22;21385;50.878;8.050;2022-12-08T13:11:13;4.00;99.90
35258;DHT22;21385;50.878;8.050;2022-12-08T13:14:00;4.00;99.90
35258;DHT22;21385;50.878;8.050;2022-12-08T13:16:31;4.00;99.90
35258;DHT22;21385;50.878;8.050;2022-12-08T13:18:59;4.00;99.90
35258;DHT22;21385;50.878;8.050;2022-12-08T13:21:35;4.00;99.90
35258;DHT22;21385;50.878;8.050;2022-12-08T13:29:32;4.10;99.90
35258;DHT22;21385;50.878;8.050;2022-12-08T13:35:05;4.10;99.90
35258;DHT22;21385;50.878;8.050;2022-12-08T13:37:46;4.10;99.90
35258;DHT22;21385;50.878;8.050;2022-12-08T13:40:24;4.10;99.90
35258;DHT22;21385;50.878;8.050;2022-12-08T13:45:27;4.10;99.90
35258;DHT22;21385;50.878;8.050;2022-12-08T13:50:57;4.10;99.90
35258;DHT22;21385;50.878;8.050;2022-12-08T13:53:29;4.00;99.90
35258;DHT22;21385;50.878;8.050;2022-12-08T13:55:57;4.00;99.90
35258;DHT22;21385;50.878;8.050;2022-12-08T13:58:32;4.00;99.90
35258;DHT22;21385;50.878;8.050;2022-12-08T14:06:35;4.00;99.90
35258;DHT22;21385;50.878;8.050;2022-12-08T14:09:06;4.10;99.90
35258;DHT22;21385;50.878;8.050;2022-12-08T14:11:38;4.00;99.90
35258;DHT22;21385;50.878;8.050;2022-12-08T14:14:14;4.00;99.90
35258;DHT22;21385;50.878;8.050;2022-12-08T14:16:47;4.00;99.90
35258;DHT22;21385;50.878;8.050;2022-12-08T14:21:45;4.00;99.90
35258;DHT22;21385;50.878;8.050;2022-12-08T14:24:11;3.90;99.90
35258;DHT22;21385;50.878;8.050;2022-12-08T14:26:36;4.00;99.90
35258;DHT22;21385;50.878;8.050;2022-12-08T14:29:06;4.00;99.90
35258;DHT22;21385;50.878;8.050;2022-12-08T14:31:32;4.00;99.90
35258;DHT22;21385;50.878;8.050;2022-12-08T14:33:57;4.00;99.90
35258;DHT22;21385;50.878;8.050;2022-12-08T14:36:23;4.10;99.90
35258;DHT22;21385;50.878;8.050;2022-12-08T14:38:50;4.10;99.90
35258;DHT22;21385;50.878;8.050;2022-12-08T14:41:24;4.10;99.90
35258;DHT22;21385;50.878;8.050;2022-12-08T14:44:21;4.20;99.90
35258;DHT22;21385;50.878;8.050;2022-12-08T14:49:37;4.20;99.90
35258;DHT22;21385;50.878;8.050;2022-12-08T14:52:10;4.30;99.90
35258;DHT22;21385;50.878;8.050;2022-12-08T14:54:37;4.20;99.90
35258;DHT22;21385;50.878;8.050;2022-12-08T14:57:04;4.20;99.90
35258;DHT22;21385;50.878;8.050;2022-12-08T14:59:33;4.20;99.90
35258;DHT22;21385;50.878;8.050;2022-12-08T15:02:32;4.20;99.90
35258;DHT22;21385;50.878;8.050;2022-12-08T15:05:08;4.30;99.90
35258;DHT22;21385;50.878;8.050;2022-12-08T15:15:51;4.20;99.90
35258;DHT22;21385;50.878;8.050;2022-12-08T15:20:59;4.20;99.90
35258;DHT22;21385;50.878;8.050;2022-12-08T15:23:40;4.20;99.90
35258;DHT22;21385;50.878;8.050;2022-12-08T15:26:07;4.20;99.90
35258;DHT22;21385;50.878;8.050;2022-12-08T15:28:33;4.20;99.90
35258;DHT22;21385;50.878;8.050;2022-12-08T15:30:59;4.20;99.90
35258;DHT22;21385;50.878;8.050;2022-12-08T15:33:25;4.20;99.90
35258;DHT22;21385;50.878;8.050;2022-12-08T15:35:51;4.20;99.90
35258;DHT22;21385;50.878;8.050;2022-12-08T15:38:26;4.20;99.90
35258;DHT22;21385;50.878;8.050;2022-12-08T15:40:54;4.20;99.90
35258;DHT22;21385;50.878;8.050;2022-12-08T15:43:20;4.20;99.90
35258;DHT22;21385;50.878;8.050;2022-12-08T15:45:46;4.30;99.90
35258;DHT22;21385;50.878;8.050;2022-12-08T15:48:22;4.30;99.90
35258;DHT22;21385;50.878;8.050;2022-12-08T15:50:49;4.30;99.90
35258;DHT22;21385;50.878;8.050;2022-12-08T15:53:15;4.30;99.90
35258;DHT22;21385;50.878;8.050;2022-12-08T15:55:41;4.40;99.90
35258;DHT22;21385;50.878;8.050;2022-12-08T15:58:22;4.40;99.90
35258;DHT22;21385;50.878;8.050;2022-12-08T16:00:49;4.40;99.90
35258;DHT22;21385;50.878;8.050;2022-12-08T16:03:26;4.40;99.90
35258;DHT22;21385;50.878;8.050;2022-12-08T16:05:52;4.40;99.90
35258;DHT22;21385;50.878;8.050;2022-12-08T16:08:19;4.40;99.90
35258;DHT22;21385;50.878;8.050;2022-12-08T16:10:45;4.30;99.90
35258;DHT22;21385;50.878;8.050;2022-12-08T16:13:15;4.40;99.90
35258;DHT22;21385;50.878;8.050;2022-12-08T16:16:01;4.40;99.90
35258;DHT22;21385;50.878;8.050;2022-12-08T16:18:31;4.40;99.90
35258;DHT22;21385;50.878;8.050;2022-12-08T16:20:57;4.30;99.90
35258;DHT22;21385;50.878;8.050;2022-12-08T16:23:23;4.30;99.90
35258;DHT22;21385;50.878;8.050;2022-12-08T16:25:49;4.30;99.90
35258;DHT22;21385;50.878;8.050;2022-12-08T16:28:14;4.40;99.90
35258;DHT22;21385;50.878;8.050;2022-12-08T16:30:40;4.40;99.90
35258;DHT22;21385;50.878;8.050;2022-12-08T16:33:05;4.40;99.90
35258;DHT22;21385;50.878;8.050;2022-12-08T16:35:31;4.40;99.90
35258;DHT22;21385;50.878;8.050;2022-12-08T16:37:57;4.40;99.90
35258;DHT22;21385;50.878;8.050;2022-12-08T16:40:22;4.40;99.90
35258;DHT22;21385;50.878;8.050;2022-12-08T16:42:48;4.40;99.90
35258;DHT22;21385;50.878;8.050;2022-12-08T16:45:20;4.40;99.90
35258;DHT22;21385;50.878;8.050;2022-12-08T16:47:51;4.40;99.90
35258;DHT22;21385;50.878;8.050;2022-12-08T16:50:23;4.40;99.90
35258;DHT22;21385;50.878;8.050;2022-12-08T16:52:55;4.40;99.90
35258;DHT22;21385;50.878;8.050;2022-12-08T16:55:21;4.50;99.90
35258;DHT22;21385;50.878;8.050;2022-12-08T16:57:47;4.50;99.90
35258;DHT22;21385;50.878;8.050;2022-12-08T17:00:15;4.40;99.90
35258;DHT22;21385;50.878;8.050;2022-12-08T17:02:41;4.40;99.90
35258;DHT22;21385;50.878;8.050;2022-12-08T17:05:07;4.40;99.90
35258;DHT22;21385;50.878;8.050;2022-12-08T17:07:34;4.40;99.90
35258;DHT22;21385;50.878;8.050;2022-12-08T17:10:03;4.30;99.90
35258;DHT22;21385;50.878;8.050;2022-12-08T17:12:30;4.20;99.90
35258;DHT22;21385;50.878;8.050;2022-12-08T17:14:56;4.20;99.90
35258;DHT22;21385;50.878;8.050;2022-12-08T17:17:21;4.20;99.90
35258;DHT22;21385;50.878;8.050;2022-12-08T17:19:47;4.10;99.90
35258;DHT22;21385;50.878;8.050;2022-12-08T17:22:13;4.10;99.90
35258;DHT22;21385;50.878;8.050;2022-12-08T17:24:38;4.10;99.90
35258;DHT22;21385;50.878;8.050;2022-12-08T17:27:04;4.10;99.90
35258;DHT22;21385;50.878;8.050;2022-12-08T17:29:31;4.10;99.90
35258;DHT22;21385;50.878;8.050;2022-12-08T17:31:57;4.20;99.90
35258;DHT22;21385;50.878;8.050;2022-12-08T17:34:23;4.20;99.90
35258;DHT22;21385;50.878;8.050;2022-12-08T17:36:49;4.20;99.90
35258;DHT22;21385;50.878;8.050;2022-12-08T17:39:15;4.20;99.90
35258;DHT22;21385;50.878;8.050;2022-12-08T17:41:40;4.20;99.90
35258;DHT22;21385;50.878;8.050;2022-12-08T17:44:10;4.20;99.90
35258;DHT22;21385;50.878;8.050;2022-12-08T17:46:37;4.20;99.90
35258;DHT22;21385;50.878;8.050;2022-12-08T17:49:10;4.20;99.90
35258;DHT22;21385;50.878;8.050;2022-12-08T17:51:37;4.20;99.90
35258;DHT22;21385;50.878;8.050;2022-12-08T17:54:03;4.20;99.90
35258;DHT22;21385;50.878;8.050;2022-12-08T17:56:28;4.30;99.90
35258;DHT22;21385;50.878;8.050;2022-12-08T17:58:54;4.30;99.90
35258;DHT22;21385;50.878;8.050;2022-12-08T18:01:21;4.20;99.90
35258;DHT22;21385;50.878;8.050;2022-12-08T18:03:46;4.20;99.90
35258;DHT22;21385;50.878;8.050;2022-12-08T18:06:12;4.10;99.90
35258;DHT22;21385;50.878;8.050;2022-12-08T18:08:38;4.00;99.90
35258;DHT22;21385;50.878;8.050;2022-12-08T18:11:09;3.90;99.90
35258;DHT22;21385;50.878;8.050;2022-12-08T18:13:35;3.80;99.90
35258;DHT22;21385;50.878;8.050;2022-12-08T18:16:00;3.70;99.90
35258;DHT22;21385;50.878;8.050;2022-12-08T18:18:26;3.70;99.90
35258;DHT22;21385;50.878;8.050;2022-12-08T18:20:51;3.70;99.90
35258;DHT22;21385;50.878;8.050;2022-12-08T18:23:17;3.60;99.90